CTFK1: Cottonwood Rv Cotwd Falls

                                SHEF ID:       CTFK1     Cottonwood Rv Cotwd Falls
STATION TYPE:

PRECIP STAGE RIV-FLOW BAT-LOAD
in ft cfs volt
Ccp-Rev Ccp-Rev Ccp-Rev Ccp-Rev
(America/Chicago)
11/22 00:00 0.00 25.38 6620 12.27
11/22 01:00 0.00 25.11 6468 12.25
11/22 02:00 0.00 24.79 6289 12.25
11/22 03:00 0.00 24.41 6080 12.25
11/22 04:00 0.00 24.00 5857 12.25
11/22 05:00 0.00 23.53 5606 12.26
11/22 06:00 0.00 23.04 5349 12.24
11/22 07:00 0.00 22.51 5077 12.25
11/22 08:00 0.00 21.96 4800 12.24
11/22 09:00 0.00 21.40 4525 12.26
11/22 10:00 0.00 20.83 4252 12.30
11/22 11:00 0.00 20.27 3991 12.36
11/22 12:00 0.00 19.72 3741 12.63
11/22 13:00 0.00 19.18 3501 13.65
11/22 14:00 0.00 18.66 3277 13.75
11/22 15:00 0.00 18.17 3072 13.74
11/22 16:00 0.00 17.70 2880 13.53
11/22 17:00 0.00 17.27 2709 13.36
11/22 18:00 0.00 16.87 2553 12.87
11/22 19:00 0.00 16.51 2417 12.61
11/22 20:00 0.00 16.18 2294 12.53
11/22 21:00 0.00 15.87 2181 12.48
11/22 22:00 0.00 15.59 2082 12.46
11/22 23:00 0.00 15.34 1994 12.44
Data processed at Sun 23Nov2025 05:06 GMT

NOTICE: If you are parsing this page

Please convert to using our Data API. Starting January 1st, 2026 we will be migrating to: https://water.usace.army.mil with modern pages rendered in JavaScript. You will no longer be able to scrape this page! CWMSDataAPI (CDA)

Timeseries IDs (TSIDs)

TSIDs used from left to right in the data table
COTF.Precip-Inc.Total.1Hour.1Hour.Ccp-Rev
COTF.Stage.Inst.1Hour.0.Ccp-Rev
COTF.Flow.Inst.1Hour.0.Ccp-Rev
COTF.Volt-Battery Load.Inst.1Hour.0.Ccp-Rev

                            

All information presented herein is the property of the government of the United States of America and may be revised or deleted at any time without prior notice. Dissemination of this information without the expressed written consent of the Public Affairs Office, Tulsa District U.S. Army Corps of Engineers is strictly prohibited. These data are gathered electronically and, as presented, have NOT undergone any form of quality control. These data are NOT guaranteed to be valid or correct.